Lincoln's New Salem, Illinois
Current Conditions -  °F | °C
As of 11:52 PM on Wednesday 17 Dec 2014 (Local Time) from KSPI Reporting Station
Clear Clear  
Wind Chill: 23°   Ceiling: Unl
Heat Index: 23°   Visibility: 9mi
Dew Point: 20°   Wind: 0mph
Humidity: 88%   Direction: NA
Pressure: 30.31"   Gusts: NA
Location:  39.99°N, 89.85°W
Report Text: KSPI 180552Z AUTO 00000KT 9SM CLR M05/M07 A3031 RMK AO2 SLP273 T10501067 11044 21061 410221061 55001
Loading
Personal Weather Stations






























Interactive Weather Map New forecast layout! Learn more

10-Day Weather Forecast

Advertisements
Track Severe Weather on mobile